createdAt,value
2019-02-20T00:00:07.937Z,2.25
2019-02-20T00:02:35.393Z,2.55
2019-02-20T00:05:02.944Z,3.08
2019-02-20T00:07:30.371Z,2.45
2019-02-20T00:09:57.928Z,2.40
2019-02-20T00:12:25.389Z,2.30
2019-02-20T00:14:53.108Z,2.92
2019-02-20T00:17:20.783Z,2.92
2019-02-20T00:19:48.472Z,3.10
2019-02-20T00:22:16.217Z,3.05
2019-02-20T00:24:43.704Z,2.42
2019-02-20T00:27:11.162Z,2.83
2019-02-20T00:29:38.696Z,2.90
2019-02-20T00:32:06.696Z,2.70
2019-02-20T00:34:34.097Z,3.27
2019-02-20T00:37:01.782Z,2.60
2019-02-20T00:39:29.233Z,2.90
2019-02-20T00:41:56.660Z,2.58
2019-02-20T00:44:36.822Z,2.05
2019-02-20T00:47:26.691Z,2.58
2019-02-20T00:49:54.620Z,2.42
2019-02-20T00:52:35.510Z,2.33
2019-02-20T00:55:03.070Z,2.65
2019-02-20T00:57:30.503Z,2.27
2019-02-20T00:59:57.901Z,2.20
2019-02-20T01:02:25.278Z,2.17
2019-02-20T01:04:52.638Z,1.77
2019-02-20T01:07:20.195Z,2.30
2019-02-20T01:09:47.551Z,2.62
2019-02-20T01:12:15.078Z,2.40
2019-02-20T01:14:42.459Z,2.30
2019-02-20T01:17:09.935Z,2.40
2019-02-20T01:19:37.390Z,2.50
2019-02-20T01:22:05.094Z,2.35
2019-02-20T01:24:32.605Z,2.50
2019-02-20T01:27:00.510Z,2.20
2019-02-20T01:29:28.342Z,2.55
2019-02-20T01:31:55.763Z,2.22
2019-02-20T01:34:23.796Z,2.10
2019-02-20T01:36:51.430Z,2.37
2019-02-20T01:39:18.922Z,2.80
2019-02-20T01:41:46.644Z,2.50
2019-02-20T01:44:14.261Z,2.50
2019-02-20T01:46:41.695Z,2.55
2019-02-20T01:49:09.196Z,2.12
2019-02-20T01:51:36.880Z,2.45
2019-02-20T01:54:04.368Z,2.10
2019-02-20T01:56:31.825Z,2.40
2019-02-20T01:58:59.231Z,2.27
2019-02-20T02:01:26.780Z,2.77
2019-02-20T02:03:54.166Z,1.90
2019-02-20T02:06:21.772Z,2.00
2019-02-20T02:08:49.236Z,2.40
2019-02-20T02:11:16.682Z,2.72
2019-02-20T02:13:44.150Z,2.30
2019-02-20T02:16:11.566Z,2.20
2019-02-20T02:18:39.011Z,2.20
2019-02-20T02:21:06.765Z,2.50
2019-02-20T02:23:34.500Z,2.20
2019-02-20T02:26:10.505Z,2.72
2019-02-20T02:28:31.316Z,2.12
2019-02-20T02:30:58.783Z,2.30
2019-02-20T02:33:26.611Z,2.30
2019-02-20T02:35:54.039Z,2.35
2019-02-20T02:38:21.929Z,2.20
2019-02-20T02:40:49.363Z,2.50
2019-02-20T02:43:16.697Z,2.55
2019-02-20T02:45:44.114Z,2.83
2019-02-20T02:48:11.586Z,2.75
2019-02-20T02:50:39.074Z,2.62
2019-02-20T02:53:06.600Z,2.77
2019-02-20T02:55:34.274Z,2.25
2019-02-20T02:58:02.066Z,2.52
2019-02-20T03:00:29.531Z,2.25
2019-02-20T03:02:56.966Z,2.27
2019-02-20T03:05:24.673Z,2.60
2019-02-20T03:07:52.159Z,1.90
2019-02-20T03:10:19.703Z,2.37
2019-02-20T03:12:47.187Z,2.10
2019-02-20T03:15:14.677Z,3.22
2019-02-20T03:17:42.167Z,2.20
2019-02-20T03:20:09.700Z,2.25
2019-02-20T03:22:37.298Z,2.83
2019-02-20T03:25:04.898Z,3.10
2019-02-20T03:27:32.457Z,3.02
2019-02-20T03:29:59.969Z,3.08
2019-02-20T03:32:27.447Z,3.10
2019-02-20T03:34:55.011Z,2.35
2019-02-20T03:37:22.511Z,2.75
2019-02-20T03:39:50.261Z,2.87
2019-02-20T03:42:17.984Z,2.35
2019-02-20T03:44:45.498Z,3.25
2019-02-20T03:47:12.978Z,2.70
2019-02-20T03:49:40.418Z,3.02
2019-02-20T03:52:08.022Z,3.40
2019-02-20T03:54:35.594Z,2.85
2019-02-20T03:57:03.414Z,3.10
2019-02-20T03:59:31.014Z,3.30
2019-02-20T04:01:59.074Z,3.20
2019-02-20T04:04:26.564Z,2.87
2019-02-20T04:06:54.386Z,3.02
2019-02-20T04:09:21.910Z,2.90
2019-02-20T04:11:49.680Z,2.50
2019-02-20T04:14:17.182Z,2.90
2019-02-20T04:16:45.053Z,2.42
2019-02-20T04:19:12.457Z,2.67
2019-02-20T04:21:39.940Z,2.47
2019-02-20T04:24:07.673Z,2.85
2019-02-20T04:26:37.870Z,2.65
2019-02-20T04:29:05.328Z,2.72
2019-02-20T04:31:32.749Z,2.12
2019-02-20T04:34:00.095Z,2.95
2019-02-20T04:36:27.837Z,2.42
2019-02-20T04:38:55.693Z,2.90
2019-02-20T04:41:23.363Z,2.45
2019-02-20T04:43:50.724Z,2.75
2019-02-20T04:46:18.157Z,2.52
2019-02-20T04:48:45.557Z,3.55
2019-02-20T04:51:12.963Z,3.62
2019-02-20T04:53:40.486Z,2.30
2019-02-20T04:56:08.001Z,2.52
2019-02-20T04:58:35.595Z,2.55
2019-02-20T05:01:03.013Z,2.95
2019-02-20T05:03:30.501Z,2.92
2019-02-20T05:05:58.201Z,2.55
2019-02-20T05:08:25.945Z,2.40
2019-02-20T05:10:53.785Z,2.77
2019-02-20T05:13:21.252Z,3.45
2019-02-20T05:15:48.621Z,3.02
2019-02-20T05:18:16.011Z,3.30
2019-02-20T05:20:43.509Z,3.37
2019-02-20T05:23:10.928Z,2.58
2019-02-20T05:25:38.442Z,2.55
2019-02-20T05:28:06.462Z,3.60
2019-02-20T05:30:33.939Z,3.40
2019-02-20T05:33:01.406Z,3.37
2019-02-20T05:35:29.240Z,2.90
2019-02-20T05:37:56.678Z,3.95
2019-02-20T05:40:24.755Z,3.58
2019-02-20T05:42:52.107Z,3.50
2019-02-20T05:45:19.604Z,3.52
2019-02-20T05:47:47.053Z,3.65
2019-02-20T05:50:14.648Z,2.98
2019-02-20T05:52:42.099Z,3.02
2019-02-20T05:55:10.045Z,3.40
2019-02-20T05:57:39.923Z,2.80
2019-02-20T06:00:08.405Z,3.50
2019-02-20T06:02:36.328Z,3.50
2019-02-20T06:05:04.678Z,3.35
2019-02-20T06:07:32.190Z,3.87
2019-02-20T06:10:00.321Z,3.17
2019-02-20T06:12:28.123Z,4.05
2019-02-20T06:14:56.006Z,3.90
2019-02-20T06:17:23.488Z,4.40
2019-02-20T06:19:51.526Z,4.75
2019-02-20T06:22:19.112Z,5.08
2019-02-20T06:24:46.972Z,4.53
2019-02-20T06:27:14.800Z,4.40
2019-02-20T06:29:42.202Z,4.25
2019-02-20T06:32:09.719Z,4.28
2019-02-20T06:34:37.255Z,4.47
2019-02-20T06:37:04.690Z,4.00
2019-02-20T06:39:32.133Z,4.17
2019-02-20T06:41:59.547Z,4.28
2019-02-20T06:44:27.264Z,4.03
2019-02-20T06:46:55.174Z,5.37
2019-02-20T06:49:22.676Z,5.37
2019-02-20T06:51:50.193Z,4.00
2019-02-20T06:54:17.829Z,3.85
2019-02-20T06:56:45.473Z,4.33
2019-02-20T06:59:13.185Z,4.45
2019-02-20T07:01:40.809Z,4.47
2019-02-20T07:04:08.387Z,4.37
2019-02-20T07:07:03.220Z,4.58
2019-02-20T07:10:15.405Z,4.85
2019-02-20T07:13:11.341Z,5.45
2019-02-20T07:16:13.054Z,4.85
2019-02-20T07:19:17.243Z,4.97
2019-02-20T07:22:29.807Z,4.83
2019-02-20T07:25:44.731Z,4.33
2019-02-20T07:28:44.965Z,7.83
2019-02-20T07:31:12.633Z,9.13
2019-02-20T07:33:40.062Z,10.60
2019-02-20T07:36:07.377Z,10.98
2019-02-20T07:38:35.209Z,9.60
2019-02-20T07:41:02.571Z,11.80
2019-02-20T07:43:30.330Z,8.45
2019-02-20T07:45:57.885Z,7.00
2019-02-20T07:48:25.773Z,6.17
2019-02-20T07:50:53.232Z,6.25
2019-02-20T07:53:20.543Z,6.58
2019-02-20T07:55:47.896Z,6.28
2019-02-20T07:58:15.571Z,6.17
2019-02-20T08:00:43.088Z,7.45
2019-02-20T08:03:10.612Z,7.55
2019-02-20T08:05:38.001Z,7.05
2019-02-20T08:08:05.313Z,7.17
2019-02-20T08:10:32.656Z,6.53
2019-02-20T08:13:00.044Z,6.30
2019-02-20T08:15:27.793Z,6.97
2019-02-20T08:17:55.426Z,6.92
2019-02-20T08:20:23.085Z,7.47
2019-02-20T08:22:50.540Z,7.50
2019-02-20T08:25:22.942Z,8.60
2019-02-20T08:27:47.477Z,8.03
2019-02-20T08:30:15.019Z,8.35
2019-02-20T08:32:42.540Z,8.45
2019-02-20T08:35:10.319Z,9.08
2019-02-20T08:37:37.634Z,8.73
2019-02-20T08:40:07.051Z,8.98
2019-02-20T08:42:34.367Z,9.20
2019-02-20T08:45:01.806Z,8.38
2019-02-20T08:47:29.217Z,8.48
2019-02-20T08:49:56.910Z,7.97
2019-02-20T08:52:24.386Z,8.45
2019-02-20T08:54:51.804Z,9.20
2019-02-20T08:57:19.127Z,8.13
2019-02-20T08:59:46.478Z,8.88
2019-02-20T09:02:13.892Z,9.73
2019-02-20T09:04:41.590Z,8.45
2019-02-20T09:07:09.359Z,7.85
2019-02-20T09:09:36.706Z,7.70
2019-02-20T09:12:04.054Z,8.60
2019-02-20T09:14:31.402Z,8.40
2019-02-20T09:16:58.882Z,8.93
2019-02-20T09:19:26.370Z,7.90
2019-02-20T09:21:54.311Z,7.70
2019-02-20T09:24:22.005Z,8.70
2019-02-20T09:26:49.732Z,9.43
2019-02-20T09:29:17.424Z,8.38
2019-02-20T09:31:44.828Z,8.75
2019-02-20T09:34:12.264Z,9.25
2019-02-20T09:36:39.599Z,8.65
2019-02-20T09:39:29.631Z,8.43
2019-02-20T09:41:57.067Z,9.88
2019-02-20T09:44:24.500Z,9.33
2019-02-20T09:46:51.889Z,10.10
2019-02-20T09:49:19.227Z,11.18
2019-02-20T09:51:46.956Z,12.58
2019-02-20T09:54:14.321Z,11.93
2019-02-20T09:56:42.057Z,12.40
2019-02-20T09:59:09.435Z,11.68
2019-02-20T10:01:36.857Z,10.70
2019-02-20T10:04:04.319Z,9.60
2019-02-20T10:06:31.678Z,9.88
2019-02-20T10:08:59.327Z,10.80
2019-02-20T10:11:27.105Z,12.10
2019-02-20T10:13:54.450Z,10.50
2019-02-20T10:16:22.224Z,11.30
2019-02-20T10:18:49.630Z,11.80
2019-02-20T10:21:17.305Z,11.00
2019-02-20T10:23:45.369Z,9.73
2019-02-20T10:26:13.669Z,9.40
2019-02-20T10:28:41.047Z,9.18
2019-02-20T10:31:08.524Z,8.80
2019-02-20T10:33:35.923Z,8.18
2019-02-20T10:36:03.334Z,8.50
2019-02-20T10:38:30.977Z,8.13
2019-02-20T10:40:58.762Z,6.50
2019-02-20T10:43:26.078Z,7.28
2019-02-20T10:45:53.414Z,6.90
2019-02-20T10:48:20.781Z,6.50
2019-02-20T10:50:48.574Z,6.78
2019-02-20T10:53:15.883Z,6.25
2019-02-20T10:55:43.902Z,6.47
2019-02-20T10:58:11.587Z,7.42
2019-02-20T11:00:39.021Z,6.72
2019-02-20T11:03:06.353Z,6.25
2019-02-20T11:05:33.776Z,7.10
2019-02-20T11:08:01.120Z,6.78
2019-02-20T11:10:28.448Z,6.47
2019-02-20T11:12:55.780Z,6.87
2019-02-20T11:15:23.123Z,7.12
2019-02-20T11:17:50.505Z,5.92
2019-02-20T11:20:17.823Z,5.50
2019-02-20T11:22:45.243Z,5.70
2019-02-20T11:25:12.685Z,5.30
2019-02-20T11:27:40.350Z,4.55
2019-02-20T11:30:10.473Z,5.35
2019-02-20T11:32:37.795Z,6.17
2019-02-20T11:35:05.390Z,4.85
2019-02-20T11:37:32.726Z,4.95
2019-02-20T11:40:00.305Z,3.98
2019-02-20T11:42:27.721Z,4.40
2019-02-20T11:44:55.125Z,6.28
2019-02-20T11:47:22.745Z,5.85
2019-02-20T11:49:50.123Z,5.58
2019-02-20T11:52:18.492Z,5.20
2019-02-20T11:54:45.871Z,4.10
2019-02-20T11:57:14.014Z,4.78
2019-02-20T11:59:41.344Z,3.83
2019-02-20T12:02:08.709Z,4.17
2019-02-20T12:04:36.049Z,4.30
2019-02-20T12:07:03.366Z,4.58
2019-02-20T12:09:30.959Z,3.70
2019-02-20T12:11:58.869Z,4.08
2019-02-20T12:14:26.233Z,4.37
2019-02-20T12:16:53.726Z,3.95
2019-02-20T12:19:32.988Z,3.90
2019-02-20T12:22:00.320Z,4.03
2019-02-20T12:24:27.730Z,4.60
2019-02-20T12:26:55.163Z,3.98
2019-02-20T12:29:22.891Z,4.95
2019-02-20T12:31:52.451Z,4.20
2019-02-20T12:34:19.771Z,4.53
2019-02-20T12:36:47.101Z,4.33
2019-02-20T12:39:14.518Z,4.22
2019-02-20T12:41:41.867Z,3.98
2019-02-20T12:44:09.207Z,3.92
2019-02-20T12:46:36.545Z,3.75
2019-02-20T12:49:03.843Z,3.83
2019-02-20T12:51:31.280Z,4.00
2019-02-20T12:53:58.771Z,4.55
2019-02-20T12:56:26.198Z,5.12
2019-02-20T12:58:53.882Z,3.75
2019-02-20T13:01:21.285Z,4.62
2019-02-20T13:03:48.717Z,3.90
2019-02-20T13:06:16.117Z,4.20
2019-02-20T13:08:43.449Z,3.47
2019-02-20T13:11:11.058Z,4.17
2019-02-20T13:13:38.436Z,4.55
2019-02-20T13:16:09.508Z,4.03
2019-02-20T13:18:35.441Z,3.65
2019-02-20T13:21:02.884Z,3.52
2019-02-20T13:23:30.336Z,3.85
2019-02-20T13:25:57.797Z,3.72
2019-02-20T13:28:25.491Z,3.70
2019-02-20T13:30:52.864Z,3.98
2019-02-20T13:33:20.549Z,3.90
2019-02-20T13:35:47.946Z,4.08
2019-02-20T13:38:16.378Z,4.22
2019-02-20T13:40:43.889Z,4.10
2019-02-20T13:43:11.625Z,3.80
2019-02-20T13:45:39.070Z,4.05
2019-02-20T13:48:06.616Z,4.37
2019-02-20T13:50:34.406Z,3.92
2019-02-20T13:53:01.879Z,4.10
2019-02-20T13:55:34.375Z,4.53
2019-02-20T13:57:58.581Z,4.58
2019-02-20T14:00:26.492Z,4.35
2019-02-20T14:02:53.957Z,4.53
2019-02-20T14:05:21.935Z,4.15
2019-02-20T14:07:49.408Z,4.40
2019-02-20T14:10:17.468Z,4.78
2019-02-20T14:12:45.145Z,4.22
2019-02-20T14:15:12.656Z,4.10
2019-02-20T14:17:40.084Z,3.80
2019-02-20T14:20:08.360Z,3.85
2019-02-20T14:22:36.166Z,4.08
2019-02-20T14:25:03.649Z,4.37
2019-02-20T14:27:31.565Z,3.60
2019-02-20T14:29:59.101Z,3.83
2019-02-20T14:32:26.617Z,3.33
2019-02-20T14:34:53.991Z,3.50
2019-02-20T14:37:22.671Z,3.37
2019-02-20T14:39:50.619Z,3.77
2019-02-20T14:42:18.376Z,2.98
2019-02-20T14:44:46.039Z,3.05
2019-02-20T14:47:13.470Z,3.05
2019-02-20T14:49:40.870Z,3.20
2019-02-20T14:52:08.728Z,3.10
2019-02-20T14:54:36.148Z,2.92
2019-02-20T14:57:03.826Z,3.17
2019-02-20T14:59:31.764Z,3.00
2019-02-20T15:02:00.047Z,3.08
2019-02-20T15:04:27.466Z,3.00
2019-02-20T15:06:55.356Z,2.72
2019-02-20T15:09:22.786Z,3.20
2019-02-20T15:11:50.846Z,2.33
2019-02-20T15:14:18.771Z,2.60
2019-02-20T15:16:46.890Z,2.80
2019-02-20T15:19:14.362Z,2.62
2019-02-20T15:21:41.944Z,2.80
2019-02-20T15:24:09.386Z,2.77
2019-02-20T15:26:37.272Z,2.65
2019-02-20T15:29:04.698Z,2.90
2019-02-20T15:31:33.938Z,3.22
2019-02-20T15:34:01.890Z,2.65
2019-02-20T15:36:29.398Z,2.40
2019-02-20T15:38:56.779Z,2.52
2019-02-20T15:41:24.468Z,2.40
2019-02-20T15:43:52.201Z,2.40
2019-02-20T15:46:19.934Z,2.27
2019-02-20T15:48:47.500Z,2.42
2019-02-20T15:51:15.252Z,2.20
2019-02-20T15:53:42.841Z,2.15
2019-02-20T15:56:10.233Z,2.55
2019-02-20T15:58:37.980Z,4.05
2019-02-20T16:01:07.954Z,2.47
2019-02-20T16:03:35.547Z,2.50
2019-02-20T16:06:03.170Z,2.40
2019-02-20T16:08:30.581Z,2.70
2019-02-20T16:10:58.125Z,2.80
2019-02-20T16:13:25.688Z,2.50
2019-02-20T16:15:53.112Z,2.42
2019-02-20T16:18:20.838Z,2.60
2019-02-20T16:20:48.299Z,2.75
2019-02-20T16:23:16.443Z,2.45
2019-02-20T16:25:44.891Z,2.50
2019-02-20T16:28:12.352Z,2.55
2019-02-20T16:30:39.896Z,2.60
2019-02-20T16:33:07.907Z,2.92
2019-02-20T16:35:35.690Z,2.60
2019-02-20T16:38:03.189Z,2.30
2019-02-20T16:40:30.960Z,2.72
2019-02-20T16:42:58.563Z,2.90
2019-02-20T16:45:25.990Z,2.77
2019-02-20T16:47:53.697Z,2.52
2019-02-20T16:50:21.124Z,2.55
2019-02-20T16:52:48.541Z,2.87
2019-02-20T16:55:19.149Z,2.72
2019-02-20T16:57:45.475Z,2.85
2019-02-20T17:00:13.580Z,2.55
2019-02-20T17:02:41.617Z,2.58
2019-02-20T17:05:13.088Z,2.72
2019-02-20T17:07:40.306Z,3.15
2019-02-20T17:10:08.666Z,2.92
2019-02-20T17:12:36.125Z,2.30
2019-02-20T17:15:03.931Z,2.60
2019-02-20T17:17:31.877Z,2.72
2019-02-20T17:19:59.930Z,2.85
2019-02-20T17:22:27.863Z,2.47
2019-02-20T17:24:55.574Z,2.92
2019-02-20T17:27:23.070Z,2.92
2019-02-20T17:29:50.506Z,2.55
2019-02-20T17:32:18.233Z,2.87
2019-02-20T17:34:45.921Z,3.10
2019-02-20T17:37:13.586Z,2.98
2019-02-20T17:39:41.561Z,2.70
2019-02-20T17:42:08.961Z,2.25
2019-02-20T17:44:36.450Z,2.83
2019-02-20T17:47:03.880Z,2.50
2019-02-20T17:49:31.483Z,2.60
2019-02-20T17:51:59.152Z,2.90
2019-02-20T17:54:26.878Z,3.50
2019-02-20T17:56:54.691Z,2.75
2019-02-20T17:59:22.024Z,2.67
2019-02-20T18:01:50.043Z,3.10
2019-02-20T18:04:17.705Z,3.10
2019-02-20T18:06:45.484Z,2.90
2019-02-20T18:09:13.128Z,2.70
2019-02-20T18:11:40.494Z,3.20
2019-02-20T18:14:09.782Z,3.02
2019-02-20T18:16:37.806Z,3.30
2019-02-20T18:19:05.500Z,3.10
2019-02-20T18:21:33.066Z,2.98
2019-02-20T18:24:00.509Z,3.27
2019-02-20T18:26:27.833Z,3.70
2019-02-20T18:28:55.290Z,3.40
2019-02-20T18:31:22.790Z,3.70
2019-02-20T18:33:50.502Z,3.87
2019-02-20T18:36:18.273Z,3.98
2019-02-20T18:38:45.664Z,3.70
2019-02-20T18:41:14.506Z,3.25
2019-02-20T18:43:42.754Z,3.65
2019-02-20T18:46:10.173Z,3.65
2019-02-20T18:48:37.619Z,4.05
2019-02-20T18:51:05.199Z,3.50
2019-02-20T18:53:32.978Z,3.05
2019-02-20T18:56:01.295Z,3.35
2019-02-20T18:58:34.018Z,4.03
2019-02-20T19:00:57.967Z,3.67
2019-02-20T19:03:25.394Z,4.00
2019-02-20T19:05:53.130Z,4.47
2019-02-20T19:08:42.124Z,3.60
2019-02-20T19:11:20.037Z,4.05
2019-02-20T19:14:12.574Z,3.35
2019-02-20T19:17:09.405Z,3.37
2019-02-20T19:20:08.340Z,3.72
2019-02-20T19:23:03.168Z,4.83
2019-02-20T19:25:59.511Z,3.72
2019-02-20T19:29:08.869Z,4.20
2019-02-20T19:32:32.564Z,4.37
2019-02-20T19:35:31.934Z,4.30
2019-02-20T19:38:44.361Z,3.67
2019-02-20T19:41:36.626Z,3.98
2019-02-20T19:44:36.582Z,5.28
2019-02-20T19:47:41.147Z,4.40
2019-02-20T19:50:43.972Z,5.08
2019-02-20T19:53:51.256Z,4.62
2019-02-20T19:57:06.707Z,4.15
2019-02-20T20:00:25.295Z,4.22
2019-02-20T20:03:43.677Z,3.58
2019-02-20T20:06:36.738Z,3.55
2019-02-20T20:09:35.846Z,3.55
2019-02-20T20:12:24.221Z,4.12
2019-02-20T20:15:36.833Z,4.42
2019-02-20T20:18:43.926Z,3.17
2019-02-20T20:21:48.909Z,3.55
2019-02-20T20:25:10.800Z,3.52
2019-02-20T20:27:54.520Z,3.80
2019-02-20T20:30:57.460Z,3.67
2019-02-20T20:34:17.403Z,3.75
2019-02-20T20:37:47.931Z,3.92
2019-02-20T20:41:09.270Z,4.35
2019-02-20T20:44:01.715Z,3.60
2019-02-20T20:46:50.068Z,3.40
2019-02-20T20:49:28.843Z,3.77
2019-02-20T20:52:44.383Z,4.45
2019-02-20T20:55:48.712Z,3.80
2019-02-20T20:59:16.949Z,4.58
2019-02-20T21:02:24.609Z,3.42
2019-02-20T21:05:37.182Z,4.28
2019-02-20T21:08:29.158Z,3.90
2019-02-20T21:11:21.181Z,3.83
2019-02-20T21:14:18.491Z,3.62
2019-02-20T21:17:22.201Z,4.17
2019-02-20T21:20:46.816Z,4.45
2019-02-20T21:23:35.256Z,4.37
2019-02-20T21:26:53.327Z,6.78
2019-02-20T21:29:43.873Z,9.85
2019-02-20T21:32:39.325Z,6.35
2019-02-20T21:35:18.457Z,7.28
2019-02-20T21:38:25.273Z,5.58
2019-02-20T21:41:24.114Z,5.40
2019-02-20T21:44:11.209Z,5.30
2019-02-20T21:47:31.240Z,5.92
2019-02-20T21:50:36.993Z,5.30
2019-02-20T21:54:07.411Z,4.22
2019-02-20T21:57:06.764Z,6.10
2019-02-20T21:59:48.467Z,5.47
2019-02-20T22:02:40.647Z,4.87
2019-02-20T22:05:41.613Z,5.33
2019-02-20T22:08:52.957Z,4.50
2019-02-20T22:11:55.973Z,5.15
2019-02-20T22:14:54.620Z,4.85
2019-02-20T22:17:52.651Z,4.70
2019-02-20T22:21:03.814Z,4.97
2019-02-20T22:24:08.394Z,4.53
2019-02-20T22:27:20.307Z,4.75
2019-02-20T22:30:44.191Z,4.05
2019-02-20T22:33:54.719Z,5.03
2019-02-20T22:37:07.269Z,5.22
2019-02-20T22:39:57.667Z,4.62
2019-02-20T22:43:25.124Z,4.60
2019-02-20T22:46:00.626Z,4.72
2019-02-20T22:48:50.209Z,5.50
2019-02-20T22:52:10.038Z,5.08
2019-02-20T22:55:28.604Z,6.00
2019-02-20T22:58:12.216Z,7.50
2019-02-20T23:01:17.633Z,9.58
2019-02-20T23:03:57.322Z,10.28
2019-02-20T23:07:24.222Z,8.65
2019-02-20T23:10:22.973Z,7.85
2019-02-20T23:13:02.626Z,7.25
2019-02-20T23:15:30.038Z,8.10
2019-02-20T23:17:57.402Z,8.48
2019-02-20T23:20:25.121Z,7.83
2019-02-20T23:22:52.582Z,8.40
2019-02-20T23:25:20.164Z,7.92
2019-02-20T23:27:47.626Z,7.50
2019-02-20T23:30:15.032Z,8.10
2019-02-20T23:32:43.372Z,7.12
2019-02-20T23:35:11.171Z,7.03
2019-02-20T23:37:38.540Z,6.30
2019-02-20T23:40:06.933Z,7.08
2019-02-20T23:42:34.914Z,7.08
2019-02-20T23:45:02.569Z,7.47
2019-02-20T23:47:29.906Z,6.87
2019-02-20T23:49:57.324Z,7.58
2019-02-20T23:52:24.717Z,7.67
2019-02-20T23:54:52.100Z,8.75
2019-02-20T23:57:19.498Z,7.22
2019-02-20T23:59:47.231Z,7.37
